Breesport, New York
Current Conditions -  °F | °C
As of 11:12 PM on Sunday 23 Nov 2014 (Local Time) from KELM Reporting Station
Broken Clouds Broken Clouds  
Wind Chill: 12°   Ceiling: 3000
Heat Index: 12°   Visibility: 10mi
Dew Point:   Wind: 10mph
Humidity: 64%   Direction: 190°S
Pressure: 29.82"   Gusts: 22mph
Location:  42.17°N, 76.73°W
Report Text: KELM 240412Z AUTO 19009G19KT 10SM BKN030 BKN044 BKN085 12/06 A2982 RMK AO2 T01220056
Loading
Personal Weather Stations






























Interactive Weather Map New forecast layout! Learn more

10-Day Weather Forecast

Advertisements
Track Severe Weather on mobile